Time;durP1;ratioP1;P1;durP2;ratioP2;P2;SDS_P1;SDS_P2;PMS_P1;PMS_P2;Temp;Humidity;BMP_temperature;BMP_pressure;BME280_temperature;BME280_humidity;BME280_pressure;Samples;Min_cycle;Max_cycle;Signal;HPM_P1;HPM_P2
2023/01/21 00:02:00;;;;;;;26.37;15.37;;;;;;;;;;5017289;28;20698;-87
2023/01/21 00:05:05;;;;;;;26.70;14.53;;;;;;;;;;5018578;28;20558;-87
2023/01/21 00:08:09;;;;;;;26.13;15.37;;;;;;;;;;5011815;28;20612;-87
2023/01/21 00:11:14;;;;;;;23.97;13.83;;;;;;;;;;5023083;28;20562;-87
2023/01/21 00:14:18;;;;;;;27.47;15.07;;;;;;;;;;5022525;28;20563;-87
2023/01/21 00:17:22;;;;;;;27.40;15.67;;;;;;;;;;5020903;28;20614;-87
2023/01/21 00:20:27;;;;;;;24.00;15.63;;;;;;;;;;5022349;28;20634;-87
2023/01/21 00:23:31;;;;;;;26.33;14.80;;;;;;;;;;5011486;28;20563;-88
2023/01/21 00:26:35;;;;;;;25.73;15.10;;;;;;;;;;5021848;28;20558;-87
2023/01/21 00:29:39;;;;;;;25.73;14.97;;;;;;;;;;5021453;28;20578;-87
2023/01/21 00:32:44;;;;;;;27.87;15.57;;;;;;;;;;5044396;28;20626;-87
2023/01/21 00:35:57;;;;;;;23.87;14.23;;;;;;;;;;5021755;28;20551;-87
2023/01/21 00:39:01;;;;;;;23.67;14.63;;;;;;;;;;5032435;28;20654;-87
2023/01/21 00:42:07;;;;;;;32.53;15.40;;;;;;;;;;5020497;28;20637;-88
2023/01/21 00:45:12;;;;;;;27.40;15.60;;;;;;;;;;5021149;28;20631;-88
2023/01/21 00:48:16;;;;;;;24.17;14.17;;;;;;;;;;5009433;28;20570;-87
2023/01/21 00:51:21;;;;;;;25.57;14.87;;;;;;;;;;5020211;28;20641;-87
2023/01/21 00:54:25;;;;;;;30.03;15.50;;;;;;;;;;5008949;28;20558;-86
2023/01/21 00:57:29;;;;;;;31.50;15.47;;;;;;;;;;5028224;28;20555;-86
2023/01/21 01:00:34;;;;;;;27.00;15.30;;;;;;;;;;5016674;28;20634;-86
2023/01/21 01:03:39;;;;;;;28.23;16.13;;;;;;;;;;5027633;28;20551;-86
2023/01/21 01:06:43;;;;;;;29.67;14.90;;;;;;;;;;5016268;28;20559;-86
2023/01/21 01:09:47;;;;;;;28.73;15.67;;;;;;;;;;5016305;28;20563;-86
2023/01/21 01:12:51;;;;;;;26.60;15.90;;;;;;;;;;5015858;28;20626;-86
2023/01/21 01:15:57;;;;;;;29.30;16.03;;;;;;;;;;5015335;28;21156;-87
2023/01/21 01:19:02;;;;;;;30.93;16.87;;;;;;;;;;5019147;28;20610;-86
2023/01/21 01:22:06;;;;;;;25.77;15.53;;;;;;;;;;5019001;28;20629;-86
2023/01/21 01:25:10;;;;;;;29.73;14.90;;;;;;;;;;5008458;28;20554;-86
2023/01/21 01:28:14;;;;;;;27.70;15.63;;;;;;;;;;5019075;28;20562;-87
2023/01/21 01:31:19;;;;;;;29.63;15.40;;;;;;;;;;5007186;28;21121;-87
2023/01/21 01:34:23;;;;;;;24.67;15.20;;;;;;;;;;5018705;28;20562;-86
2023/01/21 01:37:28;;;;;;;30.73;16.47;;;;;;;;;;5006870;28;20551;-87
2023/01/21 01:40:33;;;;;;;25.20;15.67;;;;;;;;;;5017747;28;20619;-87
2023/01/21 01:44:01;;;;;;;26.33;15.13;;;;;;;;;;5017815;28;20686;-87
2023/01/21 01:47:06;;;;;;;28.90;16.30;;;;;;;;;;5017079;28;20559;-87
2023/01/21 01:50:13;;;;;;;33.53;16.57;;;;;;;;;;5028475;28;20678;-87
2023/01/21 01:53:18;;;;;;;28.70;16.67;;;;;;;;;;5004893;28;20622;-87
2023/01/21 01:56:22;;;;;;;28.93;16.77;;;;;;;;;;5004392;28;20579;-86
2023/01/21 01:59:29;;;;;;;31.83;17.73;;;;;;;;;;5027961;28;20966;-87
2023/01/21 02:02:34;;;;;;;30.83;16.53;;;;;;;;;;5015754;28;20626;-86
2023/01/21 02:05:40;;;;;;;33.83;17.20;;;;;;;;;;5015845;28;20563;-87
2023/01/21 02:08:46;;;;;;;31.23;16.57;;;;;;;;;;5015404;28;20550;-86
2023/01/21 02:11:50;;;;;;;31.07;16.80;;;;;;;;;;5004676;28;20626;-86
2023/01/21 02:14:54;;;;;;;31.20;17.50;;;;;;;;;;5015062;28;20559;-86
2023/01/21 02:18:28;;;;;;;27.93;15.87;;;;;;;;;;5015055;28;20574;-86
2023/01/21 02:21:45;;;;;;;26.47;16.57;;;;;;;;;;5026778;28;20623;-86
2023/01/21 02:25:01;;;;;;;27.13;16.03;;;;;;;;;;5015019;28;20543;-86
2023/01/21 02:28:24;;;;;;;27.43;16.40;;;;;;;;;;5003652;28;20555;-86
2023/01/21 02:32:04;;;;;;;30.13;15.60;;;;;;;;;;5014493;28;20631;-86
2023/01/21 02:35:17;;;;;;;27.73;16.30;;;;;;;;;;4980901;28;21173;-87
2023/01/21 02:38:39;;;;;;;32.83;16.77;;;;;;;;;;5014126;28;20560;-86
2023/01/21 02:42:07;;;;;;;28.27;16.13;;;;;;;;;;5025594;28;20623;-86
2023/01/21 02:45:30;;;;;;;28.47;16.30;;;;;;;;;;5013989;28;20617;-86
2023/01/21 02:48:42;;;;;;;25.90;15.07;;;;;;;;;;5006291;28;20568;-87
2023/01/21 02:51:47;;;;;;;32.13;17.53;;;;;;;;;;5018431;28;20990;-87
2023/01/21 02:54:57;;;;;;;32.53;16.87;;;;;;;;;;5018521;28;20563;-87
2023/01/21 02:58:06;;;;;;;27.93;15.30;;;;;;;;;;5028640;28;20552;-87
2023/01/21 03:01:48;;;;;;;29.33;15.67;;;;;;;;;;5016919;28;20618;-87
2023/01/21 03:05:03;;;;;;;31.10;15.87;;;;;;;;;;5039987;28;20559;-87
2023/01/21 03:08:15;;;;;;;29.50;15.80;;;;;;;;;;5005250;28;20598;-87
2023/01/21 03:11:22;;;;;;;29.30;16.47;;;;;;;;;;5012884;28;21110;-89
2023/01/21 03:18:06;;;;;;;28.63;16.40;;;;;;;;;;5012319;28;20631;-89
2023/01/21 03:21:25;;;;;;;30.00;16.97;;;;;;;;;;5023068;28;20610;-89
2023/01/21 03:24:31;;;;;;;29.03;16.33;;;;;;;;;;5012848;28;20919;-88
2023/01/21 03:27:39;;;;;;;27.23;15.97;;;;;;;;;;5024215;28;20571;-89
2023/01/21 03:30:48;;;;;;;28.23;15.90;;;;;;;;;;5024370;28;20551;-89
2023/01/21 03:33:55;;;;;;;29.67;16.43;;;;;;;;;;5024935;28;20555;-90
2023/01/21 03:37:05;;;;;;;25.93;15.20;;;;;;;;;;5016773;28;20559;-89
2023/01/21 03:40:20;;;;;;;29.27;16.37;;;;;;;;;;5017060;28;21165;-88
2023/01/21 03:43:24;;;;;;;27.97;15.93;;;;;;;;;;5000758;28;20639;-89
2023/01/21 03:46:50;;;;;;;29.60;16.57;;;;;;;;;;5011985;28;20571;-89
2023/01/21 03:49:57;;;;;;;28.87;14.50;;;;;;;;;;5011751;28;20559;-89
2023/01/21 03:53:02;;;;;;;26.50;15.60;;;;;;;;;;5012249;28;20630;-88
2023/01/21 03:56:06;;;;;;;28.80;16.43;;;;;;;;;;5001631;28;20555;-88
2023/01/21 03:59:10;;;;;;;28.73;15.60;;;;;;;;;;5011894;28;20602;-89
2023/01/21 04:02:19;;;;;;;28.50;15.67;;;;;;;;;;5012005;28;20642;-88
2023/01/21 04:05:23;;;;;;;28.13;16.60;;;;;;;;;;5023281;28;20563;-89
2023/01/21 04:08:27;;;;;;;30.23;16.63;;;;;;;;;;5011981;28;20603;-88
2023/01/21 04:11:32;;;;;;;30.77;16.90;;;;;;;;;;5012191;28;20634;-86
2023/01/21 04:14:37;;;;;;;29.97;16.80;;;;;;;;;;5012311;28;20563;-87
2023/01/21 04:17:41;;;;;;;27.93;15.87;;;;;;;;;;5035031;28;20555;-86
2023/01/21 04:20:45;;;;;;;30.40;15.83;;;;;;;;;;5000116;28;20686;-89
2023/01/21 04:23:49;;;;;;;26.57;15.47;;;;;;;;;;5022822;28;20559;-88
2023/01/21 04:26:54;;;;;;;23.93;14.73;;;;;;;;;;5012718;28;20555;-87
2023/01/21 04:29:58;;;;;;;25.73;15.00;;;;;;;;;;5015724;28;20555;-87
2023/01/21 04:33:02;;;;;;;26.40;14.67;;;;;;;;;;5016068;28;21220;-87
2023/01/21 04:36:07;;;;;;;27.57;15.20;;;;;;;;;;5016746;28;20556;-87
2023/01/21 04:39:11;;;;;;;24.50;13.73;;;;;;;;;;5018018;28;20559;-87
2023/01/21 04:42:15;;;;;;;27.73;15.53;;;;;;;;;;5017434;28;20634;-87
2023/01/21 04:45:19;;;;;;;28.87;15.30;;;;;;;;;;5029915;28;20614;-87
2023/01/21 04:48:23;;;;;;;27.27;14.40;;;;;;;;;;5003984;28;20567;-87
2023/01/21 04:51:28;;;;;;;24.03;14.40;;;;;;;;;;5013677;28;20614;-86
2023/01/21 04:54:32;;;;;;;26.67;14.80;;;;;;;;;;5026593;28;21194;-86
2023/01/21 04:57:36;;;;;;;26.63;13.63;;;;;;;;;;5015558;28;20613;-86
2023/01/21 05:00:40;;;;;;;25.97;14.60;;;;;;;;;;5015207;28;20657;-86
2023/01/21 05:03:44;;;;;;;27.60;14.30;;;;;;;;;;5015152;28;20915;-87
2023/01/21 05:06:49;;;;;;;26.87;14.63;;;;;;;;;;5039017;28;20550;-86
2023/01/21 05:09:53;;;;;;;25.47;13.57;;;;;;;;;;5016860;28;21129;-86
2023/01/21 05:12:58;;;;;;;26.47;14.13;;;;;;;;;;5015572;28;20637;-86
2023/01/21 05:16:08;;;;;;;26.37;14.63;;;;;;;;;;5015173;28;20621;-86
2023/01/21 05:19:12;;;;;;;24.57;14.40;;;;;;;;;;5003956;28;20563;-86
2023/01/21 05:22:17;;;;;;;28.10;14.53;;;;;;;;;;5026303;28;20622;-86
2023/01/21 05:25:21;;;;;;;26.80;14.40;;;;;;;;;;5015267;28;20550;-86
2023/01/21 05:28:25;;;;;;;27.50;14.27;;;;;;;;;;5028698;28;20555;-86
2023/01/21 05:31:29;;;;;;;25.87;14.73;;;;;;;;;;5015916;28;20630;-86
2023/01/21 05:34:33;;;;;;;24.10;13.83;;;;;;;;;;5015301;28;20567;-86
2023/01/21 05:37:38;;;;;;;24.27;13.73;;;;;;;;;;5026391;28;20563;-86
2023/01/21 05:40:42;;;;;;;25.37;13.37;;;;;;;;;;5014074;28;20610;-86
2023/01/21 05:43:46;;;;;;;30.00;14.70;;;;;;;;;;5013874;28;20626;-86
2023/01/21 05:46:50;;;;;;;27.33;15.03;;;;;;;;;;5025162;28;20618;-86
2023/01/21 05:49:55;;;;;;;24.20;13.07;;;;;;;;;;5024549;28;20634;-86
2023/01/21 05:52:59;;;;;;;26.93;14.20;;;;;;;;;;5012959;28;20630;-86
2023/01/21 05:56:04;;;;;;;26.80;13.73;;;;;;;;;;5036883;28;21130;-86
2023/01/21 05:59:08;;;;;;;22.77;13.47;;;;;;;;;;5013609;28;20555;-86
2023/01/21 06:02:12;;;;;;;23.97;13.97;;;;;;;;;;5012303;28;20991;-86
2023/01/21 06:05:16;;;;;;;24.90;13.83;;;;;;;;;;5024203;28;20559;-86
2023/01/21 06:08:20;;;;;;;27.27;14.87;;;;;;;;;;5024503;28;20554;-86
2023/01/21 06:11:24;;;;;;;26.83;14.27;;;;;;;;;;5024256;28;20626;-86
2023/01/21 06:14:28;;;;;;;25.40;14.80;;;;;;;;;;5012517;28;20555;-86
2023/01/21 06:17:32;;;;;;;26.63;13.83;;;;;;;;;;5012731;28;20563;-86
2023/01/21 06:20:37;;;;;;;25.57;15.17;;;;;;;;;;5012796;28;20610;-86
2023/01/21 06:23:41;;;;;;;23.90;14.00;;;;;;;;;;5024303;28;20554;-86
2023/01/21 06:26:45;;;;;;;27.80;15.70;;;;;;;;;;5012961;28;20563;-86
2023/01/21 06:29:49;;;;;;;23.03;13.23;;;;;;;;;;5035354;28;20574;-86
2023/01/21 06:32:53;;;;;;;25.67;14.47;;;;;;;;;;5013080;28;20623;-86
2023/01/21 06:35:57;;;;;;;23.00;13.63;;;;;;;;;;5012728;28;20555;-86
2023/01/21 06:39:02;;;;;;;27.63;14.60;;;;;;;;;;5012072;28;20594;-86
2023/01/21 06:42:06;;;;;;;24.73;14.23;;;;;;;;;;5012178;28;20662;-86
2023/01/21 06:45:10;;;;;;;24.37;14.33;;;;;;;;;;4986709;28;1082351;-87
2023/01/21 06:48:14;;;;;;;25.50;14.97;;;;;;;;;;5013656;28;20183;-86
2023/01/21 06:51:18;;;;;;;21.87;12.97;;;;;;;;;;5024671;28;20562;-86
2023/01/21 06:54:23;;;;;;;25.40;13.90;;;;;;;;;;5013472;28;20555;-86
2023/01/21 06:57:27;;;;;;;21.23;12.37;;;;;;;;;;5002110;28;20559;-86
2023/01/21 07:00:31;;;;;;;25.33;13.23;;;;;;;;;;5036079;28;20614;-87
2023/01/21 07:03:35;;;;;;;29.07;13.53;;;;;;;;;;5013539;28;20566;-86
2023/01/21 07:06:39;;;;;;;26.90;15.13;;;;;;;;;;5025393;28;20551;-86
2023/01/21 07:09:43;;;;;;;24.17;13.90;;;;;;;;;;5003174;28;20563;-86
2023/01/21 07:12:47;;;;;;;27.77;14.70;;;;;;;;;;5012697;28;20654;-87
2023/01/21 07:15:51;;;;;;;26.40;15.17;;;;;;;;;;5000929;28;20603;-86
2023/01/21 07:18:56;;;;;;;26.77;14.23;;;;;;;;;;5023847;28;20590;-86
2023/01/21 07:22:00;;;;;;;28.50;14.73;;;;;;;;;;5013420;28;20666;-86
2023/01/21 07:25:05;;;;;;;32.37;17.13;;;;;;;;;;5025119;28;20598;-86
2023/01/21 07:28:08;;;;;;;25.90;14.53;;;;;;;;;;5013824;28;21117;-86
2023/01/21 07:31:13;;;;;;;27.10;14.70;;;;;;;;;;5014045;28;20555;-86
2023/01/21 07:34:17;;;;;;;24.73;14.53;;;;;;;;;;5013631;28;20602;-86
2023/01/21 07:37:21;;;;;;;28.73;14.97;;;;;;;;;;5001808;28;20552;-86
2023/01/21 07:40:26;;;;;;;27.47;15.20;;;;;;;;;;5006108;28;20631;-86
2023/01/21 07:43:30;;;;;;;28.40;15.03;;;;;;;;;;5014000;28;20912;-86
2023/01/21 07:46:34;;;;;;;35.90;21.63;;;;;;;;;;5013711;28;20563;-86
2023/01/21 07:49:39;;;;;;;27.17;17.27;;;;;;;;;;5024429;28;20604;-86
2023/01/21 07:52:44;;;;;;;25.97;14.00;;;;;;;;;;5012678;28;20986;-86
2023/01/21 07:55:47;;;;;;;27.50;14.93;;;;;;;;;;5001939;28;20970;-86
2023/01/21 07:58:52;;;;;;;23.83;14.63;;;;;;;;;;5013899;28;20563;-86
2023/01/21 08:01:56;;;;;;;25.87;13.90;;;;;;;;;;5023974;28;20666;-86
2023/01/21 08:05:01;;;;;;;28.27;14.80;;;;;;;;;;5012864;28;20563;-86
2023/01/21 08:08:05;;;;;;;24.00;14.13;;;;;;;;;;5012203;28;21118;-86
2023/01/21 08:11:09;;;;;;;28.13;13.97;;;;;;;;;;5012542;28;20555;-86
2023/01/21 08:14:13;;;;;;;28.07;14.53;;;;;;;;;;5023976;28;20551;-86
2023/01/21 08:17:17;;;;;;;24.97;13.63;;;;;;;;;;5012219;28;20911;-86
2023/01/21 08:20:22;;;;;;;32.87;15.03;;;;;;;;;;5023516;28;20559;-86
2023/01/21 08:23:26;;;;;;;23.77;13.50;;;;;;;;;;5012224;28;20555;-86
2023/01/21 08:26:30;;;;;;;28.30;13.43;;;;;;;;;;5012106;28;21125;-86
2023/01/21 08:29:34;;;;;;;24.40;13.33;;;;;;;;;;5011582;28;20558;-86
2023/01/21 08:32:39;;;;;;;23.90;14.37;;;;;;;;;;5001422;28;20621;-87
2023/01/21 08:35:43;;;;;;;27.73;14.70;;;;;;;;;;5011677;28;20563;-86
2023/01/21 08:38:51;;;;;;;26.87;14.43;;;;;;;;;;5023132;28;20567;-86
2023/01/21 08:41:55;;;;;;;25.03;13.37;;;;;;;;;;5000930;28;20675;-86
2023/01/21 08:45:00;;;;;;;24.00;14.10;;;;;;;;;;5012460;28;20618;-86
2023/01/21 08:48:04;;;;;;;29.83;14.20;;;;;;;;;;5035216;28;20571;-86
2023/01/21 08:51:08;;;;;;;29.77;14.87;;;;;;;;;;5023307;28;20968;-87
2023/01/21 08:54:12;;;;;;;25.57;13.97;;;;;;;;;;5023699;28;20602;-86
2023/01/21 08:57:16;;;;;;;25.13;14.50;;;;;;;;;;5011799;28;20610;-86
2023/01/21 09:00:21;;;;;;;26.87;14.67;;;;;;;;;;5012595;28;20618;-87
2023/01/21 09:03:25;;;;;;;22.77;13.47;;;;;;;;;;5012824;28;20630;-87
2023/01/21 09:06:29;;;;;;;29.70;14.00;;;;;;;;;;5001815;28;20559;-86
2023/01/21 09:09:33;;;;;;;26.23;13.60;;;;;;;;;;5022551;28;20562;-85
2023/01/21 09:12:40;;;;;;;29.97;14.80;;;;;;;;;;5000418;28;20622;-86
2023/01/21 09:15:45;;;;;;;30.67;14.67;;;;;;;;;;5023652;28;20563;-86
2023/01/21 09:18:49;;;;;;;24.27;13.33;;;;;;;;;;5011603;28;20911;-85
2023/01/21 09:21:54;;;;;;;26.23;13.57;;;;;;;;;;5023029;28;20666;-86
2023/01/21 09:24:58;;;;;;;26.70;14.10;;;;;;;;;;5011991;28;20563;-85
2023/01/21 09:28:03;;;;;;;24.10;13.10;;;;;;;;;;5022693;28;20551;-86
2023/01/21 09:31:14;;;;;;;23.93;13.20;;;;;;;;;;5022223;28;20563;-85
2023/01/21 09:34:18;;;;;;;25.37;14.23;;;;;;;;;;5010993;28;20563;-85
2023/01/21 09:37:23;;;;;;;24.37;13.73;;;;;;;;;;5011150;28;20551;-85
2023/01/21 09:40:27;;;;;;;30.67;12.67;;;;;;;;;;5025928;28;20911;-84
2023/01/21 09:43:39;;;;;;;23.30;13.13;;;;;;;;;;5025708;28;20543;-89
2023/01/21 09:46:52;;;;;;;23.60;13.17;;;;;;;;;;5014131;28;20567;-90
2023/01/21 09:50:09;;;;;;;21.97;11.97;;;;;;;;;;5014343;28;20555;-89
2023/01/21 09:53:42;;;;;;;26.60;12.90;;;;;;;;;;5004671;28;20630;-88
2023/01/21 09:57:13;;;;;;;26.67;13.47;;;;;;;;;;5025080;28;20770;-88
2023/01/21 10:01:09;;;;;;;28.90;13.27;;;;;;;;;;5013257;28;20551;-87
2023/01/21 10:04:39;;;;;;;22.27;12.27;;;;;;;;;;5024226;28;20552;-87
2023/01/21 10:08:00;;;;;;;22.73;13.73;;;;;;;;;;5002196;28;20552;-88
2023/01/21 10:11:10;;;;;;;20.50;12.77;;;;;;;;;;5013002;28;20552;-88
2023/01/21 10:14:50;;;;;;;22.57;11.87;;;;;;;;;;5012958;28;21102;-88
2023/01/21 10:18:02;;;;;;;23.60;12.47;;;;;;;;;;5013128;28;20556;-87
2023/01/21 10:21:17;;;;;;;23.63;12.27;;;;;;;;;;5024417;28;20920;-88
2023/01/21 10:24:28;;;;;;;21.17;12.17;;;;;;;;;;5002197;28;20540;-88
2023/01/21 10:27:34;;;;;;;24.43;13.13;;;;;;;;;;5024195;28;20591;-88
2023/01/21 10:30:43;;;;;;;21.63;10.87;;;;;;;;;;5024214;28;21150;-87
2023/01/21 10:33:47;;;;;;;25.40;13.30;;;;;;;;;;5023653;28;20552;-87
2023/01/21 10:37:13;;;;;;;22.63;13.10;;;;;;;;;;5012703;28;20552;-88
2023/01/21 10:40:44;;;;;;;23.53;13.13;;;;;;;;;;5012313;28;20539;-88
2023/01/21 10:44:13;;;;;;;26.17;12.37;;;;;;;;;;5001005;28;20611;-88
2023/01/21 10:47:35;;;;;;;27.33;12.50;;;;;;;;;;5011968;28;20591;-88
2023/01/21 10:50:57;;;;;;;28.80;14.40;;;;;;;;;;5011062;28;20897;-87
2023/01/21 10:54:11;;;;;;;25.00;12.13;;;;;;;;;;5012111;28;20557;-88
2023/01/21 10:57:39;;;;;;;21.97;11.67;;;;;;;;;;5023549;28;20544;-88
2023/01/21 11:00:47;;;;;;;27.80;12.87;;;;;;;;;;5002627;28;20555;-88
2023/01/21 11:03:55;;;;;;;27.40;15.23;;;;;;;;;;5023850;28;20545;-88
2023/01/21 11:07:03;;;;;;;19.73;10.43;;;;;;;;;;5012580;28;20552;-88
2023/01/21 11:10:08;;;;;;;24.17;12.43;;;;;;;;;;5012283;28;20552;-88
2023/01/21 11:13:13;;;;;;;20.37;10.50;;;;;;;;;;5013592;28;20611;-86
2023/01/21 11:16:38;;;;;;;21.73;11.47;;;;;;;;;;5014027;28;20548;-86
2023/01/21 11:19:57;;;;;;;18.83;10.70;;;;;;;;;;5004417;28;20549;-86
2023/01/21 11:23:03;;;;;;;24.90;12.50;;;;;;;;;;5013086;28;20648;-86
2023/01/21 11:26:20;;;;;;;19.03;10.97;;;;;;;;;;5004779;28;20587;-87
2023/01/21 11:29:26;;;;;;;23.80;12.13;;;;;;;;;;5015652;28;20563;-86
2023/01/21 11:32:31;;;;;;;20.60;10.93;;;;;;;;;;5015662;28;21222;-86
2023/01/21 11:35:36;;;;;;;19.23;10.10;;;;;;;;;;5004710;28;20599;-87
2023/01/21 11:38:40;;;;;;;19.73;11.00;;;;;;;;;;5006080;28;20959;-86
2023/01/21 11:42:03;;;;;;;19.27;10.87;;;;;;;;;;5015979;28;20627;-89
2023/01/21 11:45:28;;;;;;;18.57;10.57;;;;;;;;;;5013884;28;20611;-88
2023/01/21 11:48:34;;;;;;;19.73;10.00;;;;;;;;;;5012879;28;20556;-89
2023/01/21 11:51:40;;;;;;;21.13;10.73;;;;;;;;;;5016586;28;20619;-87
2023/01/21 11:54:45;;;;;;;20.20;11.27;;;;;;;;;;5013947;28;20544;-88
2023/01/21 11:57:55;;;;;;;22.50;11.43;;;;;;;;;;5000944;28;20552;-89
2023/01/21 12:01:02;;;;;;;27.70;13.87;;;;;;;;;;5023364;28;20552;-89
2023/01/21 12:04:14;;;;;;;17.83;10.37;;;;;;;;;;5012887;28;20603;-88
2023/01/21 12:07:30;;;;;;;19.63;10.20;;;;;;;;;;5001410;28;20579;-89
2023/01/21 12:10:41;;;;;;;20.60;10.27;;;;;;;;;;5023635;28;20552;-86
2023/01/21 12:14:12;;;;;;;19.17;9.63;;;;;;;;;;5002073;28;20536;-86
2023/01/21 12:17:34;;;;;;;20.33;10.30;;;;;;;;;;5002275;28;21121;-85
2023/01/21 12:20:57;;;;;;;15.77;9.60;;;;;;;;;;5014332;28;20532;-86
2023/01/21 12:24:38;;;;;;;15.50;9.17;;;;;;;;;;5015107;28;20604;-87
2023/01/21 12:28:01;;;;;;;17.20;8.77;;;;;;;;;;5003050;28;20541;-87
2023/01/21 12:31:22;;;;;;;13.30;8.10;;;;;;;;;;5013789;28;20548;-85
2023/01/21 12:34:39;;;;;;;20.40;10.47;;;;;;;;;;5023121;28;20591;-86
2023/01/21 12:37:53;;;;;;;18.97;9.30;;;;;;;;;;5012732;28;21176;-85
2023/01/21 12:41:07;;;;;;;13.67;8.47;;;;;;;;;;5001469;28;21079;-85
2023/01/21 12:44:33;;;;;;;16.77;9.17;;;;;;;;;;5012663;28;20611;-86
2023/01/21 12:47:52;;;;;;;19.50;9.63;;;;;;;;;;5001274;28;20552;-86
2023/01/21 12:51:03;;;;;;;20.30;10.13;;;;;;;;;;5001526;28;21174;-86
2023/01/21 12:54:33;;;;;;;18.73;9.17;;;;;;;;;;5001358;28;20549;-86
2023/01/21 12:57:44;;;;;;;16.10;8.70;;;;;;;;;;5013112;28;20548;-86
2023/01/21 13:00:51;;;;;;;14.10;8.37;;;;;;;;;;5013058;28;20548;-88
2023/01/21 13:04:39;;;;;;;17.00;10.17;;;;;;;;;;5002130;28;20604;-86
2023/01/21 13:08:23;;;;;;;14.40;8.83;;;;;;;;;;5001710;28;20544;-86
2023/01/21 13:11:38;;;;;;;15.77;7.27;;;;;;;;;;4987680;28;20651;-85
2023/01/21 13:14:46;;;;;;;11.07;6.90;;;;;;;;;;5005866;28;20591;-86
2023/01/21 13:17:56;;;;;;;10.97;6.27;;;;;;;;;;5016915;28;20552;-86
2023/01/21 13:21:23;;;;;;;13.43;6.27;;;;;;;;;;5017053;28;20559;-87
2023/01/21 13:24:31;;;;;;;13.67;7.20;;;;;;;;;;5017445;28;20552;-86
2023/01/21 13:27:50;;;;;;;13.90;6.77;;;;;;;;;;5006797;28;20552;-86
2023/01/21 13:31:13;;;;;;;10.80;6.73;;;;;;;;;;5018463;28;20547;-87
2023/01/21 13:34:49;;;;;;;13.77;6.20;;;;;;;;;;5017931;28;20893;-86
2023/01/21 13:38:32;;;;;;;10.50;6.10;;;;;;;;;;5000363;28;20611;-87
2023/01/21 13:41:45;;;;;;;8.73;5.90;;;;;;;;;;4996870;28;20635;-86
2023/01/21 13:44:58;;;;;;;11.57;6.67;;;;;;;;;;5015479;28;20599;-90
2023/01/21 13:48:14;;;;;;;13.23;7.77;;;;;;;;;;5004192;28;20548;-86
2023/01/21 13:51:49;;;;;;;15.40;7.80;;;;;;;;;;5001551;28;20564;-89
2023/01/21 13:54:56;;;;;;;11.43;7.07;;;;;;;;;;5025130;28;20544;-89
2023/01/21 13:58:07;;;;;;;12.33;6.67;;;;;;;;;;5015170;28;20552;-86
2023/01/21 14:01:24;;;;;;;12.27;6.93;;;;;;;;;;5021716;28;20552;-87
2023/01/21 14:04:36;;;;;;;12.77;7.77;;;;;;;;;;5013706;28;20604;-87
2023/01/21 14:07:51;;;;;;;12.83;7.43;;;;;;;;;;5025119;28;20548;-87
2023/01/21 14:11:15;;;;;;;11.97;7.00;;;;;;;;;;5002922;28;20936;-86
2023/01/21 14:14:38;;;;;;;12.07;7.10;;;;;;;;;;5013372;28;20548;-89
2023/01/21 14:17:54;;;;;;;13.83;6.97;;;;;;;;;;5012635;28;20548;-88
2023/01/21 14:21:08;;;;;;;15.67;7.43;;;;;;;;;;5023708;28;20552;-89
2023/01/21 14:24:30;;;;;;;11.63;7.10;;;;;;;;;;5012838;28;20604;-88
2023/01/21 14:27:59;;;;;;;15.10;8.13;;;;;;;;;;5012382;28;20560;-88
2023/01/21 14:31:03;;;;;;;10.90;6.20;;;;;;;;;;5023261;28;20544;-89
2023/01/21 14:34:14;;;;;;;12.40;7.33;;;;;;;;;;5012780;28;20540;-87
2023/01/21 14:37:28;;;;;;;15.10;7.80;;;;;;;;;;5002250;28;20556;-86
2023/01/21 14:40:47;;;;;;;11.53;7.13;;;;;;;;;;5025895;28;20556;-87
2023/01/21 14:43:52;;;;;;;11.40;5.83;;;;;;;;;;5019991;28;20655;-86
2023/01/21 14:47:13;;;;;;;10.70;6.33;;;;;;;;;;5011000;28;20556;-87
2023/01/21 14:50:49;;;;;;;13.83;6.67;;;;;;;;;;5021841;28;21111;-87
2023/01/21 14:54:01;;;;;;;15.53;9.53;;;;;;;;;;5010921;28;20591;-87
2023/01/21 14:57:17;;;;;;;21.13;10.33;;;;;;;;;;5022056;28;20556;-87
2023/01/21 15:00:29;;;;;;;12.57;9.33;;;;;;;;;;5011042;28;20552;-87
2023/01/21 15:03:46;;;;;;;13.03;9.97;;;;;;;;;;5022378;28;20604;-87
2023/01/21 15:06:58;;;;;;;9.53;6.40;;;;;;;;;;5010663;28;20628;-87
2023/01/21 15:10:11;;;;;;;12.83;8.27;;;;;;;;;;5022224;28;20548;-86
2023/01/21 15:13:31;;;;;;;18.97;9.67;;;;;;;;;;5022194;28;20635;-86
2023/01/21 15:16:38;;;;;;;16.80;8.60;;;;;;;;;;5024902;28;20545;-87
2023/01/21 15:19:42;;;;;;;10.20;6.27;;;;;;;;;;5013287;28;20556;-87
2023/01/21 15:23:02;;;;;;;10.27;6.17;;;;;;;;;;5024163;28;20619;-87
2023/01/21 15:26:07;;;;;;;9.23;6.30;;;;;;;;;;5014506;28;20560;-88
2023/01/21 15:29:22;;;;;;;13.70;8.97;;;;;;;;;;5000427;28;20548;-88
2023/01/21 15:32:43;;;;;;;14.67;8.40;;;;;;;;;;5011739;28;20639;-88
2023/01/21 15:35:48;;;;;;;16.40;9.50;;;;;;;;;;5011190;28;20547;-89
2023/01/21 15:38:57;;;;;;;14.87;9.47;;;;;;;;;;5011901;28;20552;-88
2023/01/21 15:42:26;;;;;;;24.77;10.30;;;;;;;;;;5011590;28;20631;-89
2023/01/21 15:45:50;;;;;;;12.33;7.10;;;;;;;;;;5012002;28;20694;-88
2023/01/21 15:49:09;;;;;;;10.63;6.07;;;;;;;;;;5011313;28;20545;-88
2023/01/21 15:52:31;;;;;;;9.27;5.40;;;;;;;;;;5012474;28;21197;-88
2023/01/21 15:56:12;;;;;;;13.77;5.30;;;;;;;;;;5000108;28;20545;-88
2023/01/21 15:59:35;;;;;;;8.83;6.00;;;;;;;;;;5010831;28;20536;-88
2023/01/21 16:03:16;;;;;;;9.33;5.77;;;;;;;;;;5010577;28;21158;-88
2023/01/21 16:06:53;;;;;;;12.30;6.40;;;;;;;;;;5010833;28;20603;-88
2023/01/21 16:10:26;;;;;;;10.10;6.10;;;;;;;;;;5014006;28;20626;-88
2023/01/21 16:13:54;;;;;;;12.63;6.40;;;;;;;;;;5010765;28;20555;-88
2023/01/21 16:17:05;;;;;;;11.90;6.60;;;;;;;;;;5021983;28;20552;-88
2023/01/21 16:20:11;;;;;;;16.80;7.40;;;;;;;;;;5011245;28;20548;-88
2023/01/21 16:23:18;;;;;;;13.90;6.43;;;;;;;;;;5011016;28;20667;-88
2023/01/21 16:26:28;;;;;;;13.13;6.87;;;;;;;;;;5021522;28;20555;-89
2023/01/21 16:29:37;;;;;;;12.63;6.60;;;;;;;;;;5021760;28;20586;-89
2023/01/21 16:32:41;;;;;;;12.90;7.60;;;;;;;;;;5010475;28;20627;-88
2023/01/21 16:35:51;;;;;;;15.27;8.20;;;;;;;;;;5013235;28;20551;-87
2023/01/21 16:38:55;;;;;;;13.07;7.07;;;;;;;;;;5036326;28;21127;-87
2023/01/21 16:42:01;;;;;;;12.00;7.30;;;;;;;;;;5037692;28;20627;-88
2023/01/21 16:45:10;;;;;;;14.70;7.37;;;;;;;;;;5011397;28;20655;-88
2023/01/21 16:48:35;;;;;;;12.43;7.50;;;;;;;;;;5014321;28;20552;-88
2023/01/21 16:51:44;;;;;;;13.33;6.77;;;;;;;;;;5014989;28;20623;-87
2023/01/21 16:54:50;;;;;;;17.33;8.27;;;;;;;;;;5026048;28;20599;-87
2023/01/21 16:57:57;;;;;;;18.20;8.53;;;;;;;;;;5005975;28;20552;-86
2023/01/21 17:01:10;;;;;;;21.10;11.13;;;;;;;;;;5017607;28;20560;-88
2023/01/21 17:04:14;;;;;;;17.43;9.70;;;;;;;;;;5017782;28;20631;-87
2023/01/21 17:07:29;;;;;;;19.40;8.73;;;;;;;;;;5017691;28;20555;-86
2023/01/21 17:10:34;;;;;;;17.97;9.00;;;;;;;;;;5016409;28;20555;-87
2023/01/21 17:13:41;;;;;;;14.13;8.60;;;;;;;;;;5015185;28;20548;-87
2023/01/21 17:16:45;;;;;;;20.53;10.10;;;;;;;;;;5015215;28;21122;-86
2023/01/21 17:19:50;;;;;;;17.33;9.17;;;;;;;;;;5025746;28;20606;-86
2023/01/21 17:23:02;;;;;;;14.73;8.27;;;;;;;;;;5015222;28;20631;-87
2023/01/21 17:26:24;;;;;;;36.97;16.07;;;;;;;;;;5015121;28;20606;-86
2023/01/21 17:29:31;;;;;;;82.03;35.90;;;;;;;;;;5014996;28;20559;-86
2023/01/21 17:32:36;;;;;;;138.13;56.07;;;;;;;;;;5014590;28;20986;-86
2023/01/21 17:36:07;;;;;;;40.43;19.67;;;;;;;;;;5026430;28;20563;-86
2023/01/21 17:39:11;;;;;;;22.97;10.97;;;;;;;;;;5026595;28;20563;-87
2023/01/21 17:42:19;;;;;;;15.33;8.90;;;;;;;;;;5014630;28;20638;-87
2023/01/21 17:45:29;;;;;;;17.47;8.60;;;;;;;;;;5025530;28;20651;-86
2023/01/21 17:48:43;;;;;;;19.63;10.13;;;;;;;;;;5026433;28;21172;-87
2023/01/21 17:51:47;;;;;;;17.10;8.60;;;;;;;;;;5016579;28;20634;-86
2023/01/21 17:55:28;;;;;;;16.50;8.27;;;;;;;;;;5016922;28;20547;-87
2023/01/21 17:58:49;;;;;;;21.00;9.67;;;;;;;;;;5016651;28;20556;-86
2023/01/21 18:01:54;;;;;;;19.27;10.33;;;;;;;;;;5028752;28;20960;-86
2023/01/21 18:04:58;;;;;;;16.23;9.43;;;;;;;;;;5028833;28;20614;-86
2023/01/21 18:08:11;;;;;;;18.33;9.17;;;;;;;;;;5017426;28;21102;-86
2023/01/21 18:11:16;;;;;;;15.53;8.33;;;;;;;;;;5017145;28;20600;-86
2023/01/21 18:14:23;;;;;;;12.90;7.80;;;;;;;;;;5028090;28;20563;-86
2023/01/21 18:17:27;;;;;;;16.87;8.03;;;;;;;;;;5016997;28;20559;-86
2023/01/21 18:20:32;;;;;;;13.77;7.83;;;;;;;;;;5015746;28;20552;-86
2023/01/21 18:23:36;;;;;;;18.07;9.03;;;;;;;;;;5005378;28;20892;-86
2023/01/21 18:26:40;;;;;;;17.57;9.07;;;;;;;;;;5020022;28;20551;-87
2023/01/21 18:29:45;;;;;;;19.17;8.73;;;;;;;;;;5011310;28;20547;-86
2023/01/21 18:32:50;;;;;;;14.97;8.33;;;;;;;;;;5022764;28;20611;-87
2023/01/21 18:35:54;;;;;;;14.03;8.07;;;;;;;;;;5035873;28;20599;-87
2023/01/21 18:38:59;;;;;;;15.07;8.93;;;;;;;;;;5009893;28;20556;-87